sensor_id;sensor_type;location;lat;lon;timestamp;P1;durP1;ratioP1;P2;durP2;ratioP2
70532;SDS011;58088;51.186;17.130;2022-12-05T00:01:21;40.70;;;11.50;;
70532;SDS011;58088;51.186;17.130;2022-12-05T00:03:49;67.20;;;22.40;;
70532;SDS011;58088;51.186;17.130;2022-12-05T00:06:17;63.20;;;19.90;;
70532;SDS011;58088;51.186;17.130;2022-12-05T00:08:45;50.60;;;16.00;;
70532;SDS011;58088;51.186;17.130;2022-12-05T00:11:14;56.80;;;17.90;;
70532;SDS011;58088;51.186;17.130;2022-12-05T00:13:52;46.60;;;15.00;;
70532;SDS011;58088;51.186;17.130;2022-12-05T00:16:22;65.10;;;21.60;;
70532;SDS011;58088;51.186;17.130;2022-12-05T00:18:50;42.70;;;13.70;;
70532;SDS011;58088;51.186;17.130;2022-12-05T00:21:22;50.10;;;14.70;;
70532;SDS011;58088;51.186;17.130;2022-12-05T00:23:50;42.70;;;12.70;;
70532;SDS011;58088;51.186;17.130;2022-12-05T00:26:18;54.70;;;17.80;;
70532;SDS011;58088;51.186;17.130;2022-12-05T00:28:45;37.80;;;11.20;;
70532;SDS011;58088;51.186;17.130;2022-12-05T00:31:14;34.50;;;11.30;;
70532;SDS011;58088;51.186;17.130;2022-12-05T00:33:49;30.60;;;11.00;;
70532;SDS011;58088;51.186;17.130;2022-12-05T00:36:17;55.40;;;16.50;;
70532;SDS011;58088;51.186;17.130;2022-12-05T00:38:47;60.10;;;20.50;;
70532;SDS011;58088;51.186;17.130;2022-12-05T00:41:18;36.40;;;11.30;;
70532;SDS011;58088;51.186;17.130;2022-12-05T00:43:49;47.60;;;16.90;;
70532;SDS011;58088;51.186;17.130;2022-12-05T00:46:21;52.50;;;18.10;;
70532;SDS011;58088;51.186;17.130;2022-12-05T00:48:51;46.10;;;14.60;;
70532;SDS011;58088;51.186;17.130;2022-12-05T00:51:24;35.70;;;10.90;;
70532;SDS011;58088;51.186;17.130;2022-12-05T00:54:00;39.00;;;11.40;;
70532;SDS011;58088;51.186;17.130;2022-12-05T00:56:29;52.50;;;15.00;;
70532;SDS011;58088;51.186;17.130;2022-12-05T00:58:58;61.20;;;20.10;;
70532;SDS011;58088;51.186;17.130;2022-12-05T01:03:59;62.00;;;19.60;;
70532;SDS011;58088;51.186;17.130;2022-12-05T01:06:28;46.30;;;14.30;;
70532;SDS011;58088;51.186;17.130;2022-12-05T01:08:56;46.70;;;15.20;;
70532;SDS011;58088;51.186;17.130;2022-12-05T01:11:24;39.20;;;12.70;;
70532;SDS011;58088;51.186;17.130;2022-12-05T01:13:52;53.10;;;16.10;;
70532;SDS011;58088;51.186;17.130;2022-12-05T01:16:28;50.20;;;16.20;;
70532;SDS011;58088;51.186;17.130;2022-12-05T01:19:04;44.50;;;15.10;;
70532;SDS011;58088;51.186;17.130;2022-12-05T01:21:32;46.70;;;13.90;;
70532;SDS011;58088;51.186;17.130;2022-12-05T01:23:58;36.10;;;10.70;;
70532;SDS011;58088;51.186;17.130;2022-12-05T01:26:24;27.30;;;7.90;;
70532;SDS011;58088;51.186;17.130;2022-12-05T01:28:51;56.10;;;18.90;;
70532;SDS011;58088;51.186;17.130;2022-12-05T01:31:26;39.80;;;12.90;;
70532;SDS011;58088;51.186;17.130;2022-12-05T01:33:56;46.70;;;15.60;;
70532;SDS011;58088;51.186;17.130;2022-12-05T01:36:25;49.90;;;15.10;;
70532;SDS011;58088;51.186;17.130;2022-12-05T01:38:52;65.90;;;21.40;;
70532;SDS011;58088;51.186;17.130;2022-12-05T01:41:28;54.90;;;17.10;;
70532;SDS011;58088;51.186;17.130;2022-12-05T01:44:00;35.60;;;10.50;;
70532;SDS011;58088;51.186;17.130;2022-12-05T01:46:49;65.10;;;20.90;;
70532;SDS011;58088;51.186;17.130;2022-12-05T01:49:22;53.80;;;17.80;;
70532;SDS011;58088;51.186;17.130;2022-12-05T01:51:54;59.80;;;20.00;;
70532;SDS011;58088;51.186;17.130;2022-12-05T01:54:23;59.20;;;19.60;;
70532;SDS011;58088;51.186;17.130;2022-12-05T01:56:57;60.30;;;20.80;;
70532;SDS011;58088;51.186;17.130;2022-12-05T01:59:30;31.20;;;10.30;;
70532;SDS011;58088;51.186;17.130;2022-12-05T02:02:01;52.20;;;17.60;;
70532;SDS011;58088;51.186;17.130;2022-12-05T02:04:28;50.70;;;17.00;;
70532;SDS011;58088;51.186;17.130;2022-12-05T02:06:55;52.00;;;18.50;;
70532;SDS011;58088;51.186;17.130;2022-12-05T02:09:22;47.20;;;18.50;;
70532;SDS011;58088;51.186;17.130;2022-12-05T02:12:00;65.30;;;20.70;;
70532;SDS011;58088;51.186;17.130;2022-12-05T02:17:23;66.10;;;20.40;;
70532;SDS011;58088;51.186;17.130;2022-12-05T02:20:45;42.20;;;15.00;;
70532;SDS011;58088;51.186;17.130;2022-12-05T02:23:26;58.30;;;19.00;;
70532;SDS011;58088;51.186;17.130;2022-12-05T02:35:11;47.80;;;13.60;;
70532;SDS011;58088;51.186;17.130;2022-12-05T02:46:29;54.80;;;18.10;;
70532;SDS011;58088;51.186;17.130;2022-12-05T02:49:01;43.20;;;12.00;;
70532;SDS011;58088;51.186;17.130;2022-12-05T02:51:37;34.00;;;10.50;;
70532;SDS011;58088;51.186;17.130;2022-12-05T02:54:11;46.80;;;15.40;;
70532;SDS011;58088;51.186;17.130;2022-12-05T02:56:44;57.30;;;21.50;;
70532;SDS011;58088;51.186;17.130;2022-12-05T02:59:12;48.90;;;17.20;;
70532;SDS011;58088;51.186;17.130;2022-12-05T03:01:38;40.00;;;13.90;;
70532;SDS011;58088;51.186;17.130;2022-12-05T03:04:05;54.30;;;16.90;;
70532;SDS011;58088;51.186;17.130;2022-12-05T03:06:37;51.80;;;18.40;;
70532;SDS011;58088;51.186;17.130;2022-12-05T03:09:14;31.90;;;11.10;;
70532;SDS011;58088;51.186;17.130;2022-12-05T03:12:08;39.40;;;13.40;;
70532;SDS011;58088;51.186;17.130;2022-12-05T03:14:42;44.80;;;15.80;;
70532;SDS011;58088;51.186;17.130;2022-12-05T03:17:25;26.00;;;9.60;;
70532;SDS011;58088;51.186;17.130;2022-12-05T03:29:09;42.70;;;15.00;;
70532;SDS011;58088;51.186;17.130;2022-12-05T03:34:43;39.80;;;13.90;;
70532;SDS011;58088;51.186;17.130;2022-12-05T03:40:01;43.00;;;15.30;;
70532;SDS011;58088;51.186;17.130;2022-12-05T03:42:34;29.00;;;10.20;;
70532;SDS011;58088;51.186;17.130;2022-12-05T03:45:13;50.30;;;17.60;;
70532;SDS011;58088;51.186;17.130;2022-12-05T03:50:40;40.10;;;13.30;;
70532;SDS011;58088;51.186;17.130;2022-12-05T03:53:14;39.70;;;14.40;;
70532;SDS011;58088;51.186;17.130;2022-12-05T03:55:57;28.40;;;10.40;;
70532;SDS011;58088;51.186;17.130;2022-12-05T03:58:42;33.40;;;11.60;;
70532;SDS011;58088;51.186;17.130;2022-12-05T04:01:16;27.10;;;10.20;;
70532;SDS011;58088;51.186;17.130;2022-12-05T04:03:49;46.50;;;16.50;;
70532;SDS011;58088;51.186;17.130;2022-12-05T04:06:37;52.10;;;18.40;;
70532;SDS011;58088;51.186;17.130;2022-12-05T04:09:17;45.20;;;16.40;;
70532;SDS011;58088;51.186;17.130;2022-12-05T04:11:50;30.60;;;10.00;;
70532;SDS011;58088;51.186;17.130;2022-12-05T04:14:29;54.10;;;17.90;;
70532;SDS011;58088;51.186;17.130;2022-12-05T04:17:05;26.70;;;9.80;;
70532;SDS011;58088;51.186;17.130;2022-12-05T04:19:47;39.20;;;13.00;;
70532;SDS011;58088;51.186;17.130;2022-12-05T04:22:37;20.50;;;6.80;;
70532;SDS011;58088;51.186;17.130;2022-12-05T04:25:08;36.50;;;10.90;;
70532;SDS011;58088;51.186;17.130;2022-12-05T04:28:33;25.30;;;7.80;;
70532;SDS011;58088;51.186;17.130;2022-12-05T04:31:16;39.60;;;12.40;;
70532;SDS011;58088;51.186;17.130;2022-12-05T04:33:52;41.20;;;12.70;;
70532;SDS011;58088;51.186;17.130;2022-12-05T04:36:55;40.80;;;13.20;;
70532;SDS011;58088;51.186;17.130;2022-12-05T04:39:39;30.60;;;9.00;;
70532;SDS011;58088;51.186;17.130;2022-12-05T04:42:24;39.90;;;13.80;;
70532;SDS011;58088;51.186;17.130;2022-12-05T04:44:54;16.30;;;5.60;;
70532;SDS011;58088;51.186;17.130;2022-12-05T04:47:28;28.80;;;11.30;;
70532;SDS011;58088;51.186;17.130;2022-12-05T04:50:02;34.60;;;12.30;;
70532;SDS011;58088;51.186;17.130;2022-12-05T04:52:32;42.90;;;14.60;;
70532;SDS011;58088;51.186;17.130;2022-12-05T04:55:17;40.00;;;13.40;;
70532;SDS011;58088;51.186;17.130;2022-12-05T05:00:52;44.00;;;14.00;;
70532;SDS011;58088;51.186;17.130;2022-12-05T05:03:49;39.70;;;13.10;;
70532;SDS011;58088;51.186;17.130;2022-12-05T05:06:19;37.10;;;12.00;;
70532;SDS011;58088;51.186;17.130;2022-12-05T05:08:51;43.10;;;15.00;;
70532;SDS011;58088;51.186;17.130;2022-12-05T05:11:24;57.80;;;22.20;;
70532;SDS011;58088;51.186;17.130;2022-12-05T05:13:52;43.60;;;15.30;;
70532;SDS011;58088;51.186;17.130;2022-12-05T05:16:28;89.70;;;30.10;;
70532;SDS011;58088;51.186;17.130;2022-12-05T05:18:58;34.90;;;11.40;;
70532;SDS011;58088;51.186;17.130;2022-12-05T05:21:29;41.00;;;14.10;;
70532;SDS011;58088;51.186;17.130;2022-12-05T05:23:58;38.50;;;12.70;;
70532;SDS011;58088;51.186;17.130;2022-12-05T05:26:26;30.80;;;9.10;;
70532;SDS011;58088;51.186;17.130;2022-12-05T05:28:54;46.80;;;14.40;;
70532;SDS011;58088;51.186;17.130;2022-12-05T05:31:22;32.20;;;11.50;;
70532;SDS011;58088;51.186;17.130;2022-12-05T05:33:52;39.10;;;14.30;;
70532;SDS011;58088;51.186;17.130;2022-12-05T05:36:21;47.60;;;16.90;;
70532;SDS011;58088;51.186;17.130;2022-12-05T05:38:50;49.40;;;16.80;;
70532;SDS011;58088;51.186;17.130;2022-12-05T05:41:26;40.40;;;13.30;;
70532;SDS011;58088;51.186;17.130;2022-12-05T05:43:55;37.00;;;12.30;;
70532;SDS011;58088;51.186;17.130;2022-12-05T05:46:25;34.30;;;12.10;;
70532;SDS011;58088;51.186;17.130;2022-12-05T05:48:53;46.00;;;15.80;;
70532;SDS011;58088;51.186;17.130;2022-12-05T05:51:21;53.60;;;18.80;;
70532;SDS011;58088;51.186;17.130;2022-12-05T05:53:50;47.80;;;17.60;;
70532;SDS011;58088;51.186;17.130;2022-12-05T05:56:18;41.50;;;12.90;;
70532;SDS011;58088;51.186;17.130;2022-12-05T05:58:46;41.80;;;15.50;;
70532;SDS011;58088;51.186;17.130;2022-12-05T06:01:16;41.80;;;13.90;;
70532;SDS011;58088;51.186;17.130;2022-12-05T06:03:45;46.70;;;16.50;;
70532;SDS011;58088;51.186;17.130;2022-12-05T06:06:13;48.10;;;16.30;;
70532;SDS011;58088;51.186;17.130;2022-12-05T06:08:41;46.40;;;16.60;;
70532;SDS011;58088;51.186;17.130;2022-12-05T06:11:15;50.70;;;18.10;;
70532;SDS011;58088;51.186;17.130;2022-12-05T06:13:43;45.80;;;16.40;;
70532;SDS011;58088;51.186;17.130;2022-12-05T06:16:13;47.90;;;16.60;;
70532;SDS011;58088;51.186;17.130;2022-12-05T06:18:42;43.50;;;15.80;;
70532;SDS011;58088;51.186;17.130;2022-12-05T06:21:09;37.20;;;14.00;;
70532;SDS011;58088;51.186;17.130;2022-12-05T06:23:37;22.80;;;8.30;;
70532;SDS011;58088;51.186;17.130;2022-12-05T06:26:06;37.10;;;12.30;;
70532;SDS011;58088;51.186;17.130;2022-12-05T06:28:36;40.90;;;16.40;;
70532;SDS011;58088;51.186;17.130;2022-12-05T06:31:15;38.40;;;12.20;;
70532;SDS011;58088;51.186;17.130;2022-12-05T06:33:44;52.30;;;18.10;;
70532;SDS011;58088;51.186;17.130;2022-12-05T06:36:14;52.30;;;17.30;;
70532;SDS011;58088;51.186;17.130;2022-12-05T06:38:43;57.00;;;18.60;;
70532;SDS011;58088;51.186;17.130;2022-12-05T06:41:13;44.70;;;15.80;;
70532;SDS011;58088;51.186;17.130;2022-12-05T06:43:41;48.80;;;17.20;;
70532;SDS011;58088;51.186;17.130;2022-12-05T06:46:09;41.60;;;15.10;;
70532;SDS011;58088;51.186;17.130;2022-12-05T06:48:36;48.40;;;18.10;;
70532;SDS011;58088;51.186;17.130;2022-12-05T06:51:03;43.80;;;16.90;;
70532;SDS011;58088;51.186;17.130;2022-12-05T06:53:29;43.20;;;15.00;;
70532;SDS011;58088;51.186;17.130;2022-12-05T06:56:00;42.10;;;16.30;;
70532;SDS011;58088;51.186;17.130;2022-12-05T06:58:30;37.40;;;14.30;;
70532;SDS011;58088;51.186;17.130;2022-12-05T07:00:56;44.90;;;18.30;;
70532;SDS011;58088;51.186;17.130;2022-12-05T07:03:41;45.70;;;16.50;;
70532;SDS011;58088;51.186;17.130;2022-12-05T07:06:14;48.80;;;16.90;;
70532;SDS011;58088;51.186;17.130;2022-12-05T07:08:41;49.30;;;16.70;;
70532;SDS011;58088;51.186;17.130;2022-12-05T07:11:08;46.10;;;16.50;;
70532;SDS011;58088;51.186;17.130;2022-12-05T07:13:34;47.80;;;16.20;;
70532;SDS011;58088;51.186;17.130;2022-12-05T07:16:00;44.90;;;18.20;;
70532;SDS011;58088;51.186;17.130;2022-12-05T07:18:26;45.50;;;17.40;;
70532;SDS011;58088;51.186;17.130;2022-12-05T07:20:57;41.30;;;16.20;;
70532;SDS011;58088;51.186;17.130;2022-12-05T07:23:25;38.90;;;15.00;;
70532;SDS011;58088;51.186;17.130;2022-12-05T07:25:52;41.90;;;14.50;;
70532;SDS011;58088;51.186;17.130;2022-12-05T07:28:19;40.30;;;15.30;;
70532;SDS011;58088;51.186;17.130;2022-12-05T07:30:45;34.30;;;10.60;;
70532;SDS011;58088;51.186;17.130;2022-12-05T07:33:11;43.70;;;15.90;;
70532;SDS011;58088;51.186;17.130;2022-12-05T07:35:37;46.50;;;16.20;;
70532;SDS011;58088;51.186;17.130;2022-12-05T07:38:03;36.10;;;15.40;;
70532;SDS011;58088;51.186;17.130;2022-12-05T07:40:30;40.90;;;13.70;;
70532;SDS011;58088;51.186;17.130;2022-12-05T07:42:56;41.40;;;15.10;;
70532;SDS011;58088;51.186;17.130;2022-12-05T07:45:22;34.90;;;12.40;;
70532;SDS011;58088;51.186;17.130;2022-12-05T07:47:48;35.90;;;12.50;;
70532;SDS011;58088;51.186;17.130;2022-12-05T07:50:14;40.60;;;15.90;;
70532;SDS011;58088;51.186;17.130;2022-12-05T07:52:41;47.50;;;15.20;;
70532;SDS011;58088;51.186;17.130;2022-12-05T07:55:07;44.40;;;15.00;;
70532;SDS011;58088;51.186;17.130;2022-12-05T07:57:34;31.60;;;12.80;;
70532;SDS011;58088;51.186;17.130;2022-12-05T08:00:00;45.40;;;17.20;;
70532;SDS011;58088;51.186;17.130;2022-12-05T08:02:26;41.70;;;15.20;;
70532;SDS011;58088;51.186;17.130;2022-12-05T08:04:52;24.50;;;9.10;;
70532;SDS011;58088;51.186;17.130;2022-12-05T08:07:18;39.80;;;14.50;;
70532;SDS011;58088;51.186;17.130;2022-12-05T08:09:44;45.50;;;16.10;;
70532;SDS011;58088;51.186;17.130;2022-12-05T08:12:10;36.30;;;12.90;;
70532;SDS011;58088;51.186;17.130;2022-12-05T08:14:37;45.10;;;16.20;;
70532;SDS011;58088;51.186;17.130;2022-12-05T08:17:03;44.80;;;16.60;;
70532;SDS011;58088;51.186;17.130;2022-12-05T08:19:29;39.50;;;14.80;;
70532;SDS011;58088;51.186;17.130;2022-12-05T08:21:55;44.20;;;16.60;;
70532;SDS011;58088;51.186;17.130;2022-12-05T08:24:22;43.30;;;16.50;;
70532;SDS011;58088;51.186;17.130;2022-12-05T08:26:49;40.40;;;14.60;;
70532;SDS011;58088;51.186;17.130;2022-12-05T08:29:20;40.80;;;15.00;;
70532;SDS011;58088;51.186;17.130;2022-12-05T08:31:49;42.80;;;16.50;;
70532;SDS011;58088;51.186;17.130;2022-12-05T08:34:18;40.80;;;15.00;;
70532;SDS011;58088;51.186;17.130;2022-12-05T08:36:45;46.10;;;15.80;;
70532;SDS011;58088;51.186;17.130;2022-12-05T08:39:14;42.80;;;15.40;;
70532;SDS011;58088;51.186;17.130;2022-12-05T08:41:44;46.20;;;16.20;;
70532;SDS011;58088;51.186;17.130;2022-12-05T08:44:13;33.30;;;12.70;;
70532;SDS011;58088;51.186;17.130;2022-12-05T08:46:44;44.60;;;16.00;;
70532;SDS011;58088;51.186;17.130;2022-12-05T08:49:12;39.70;;;13.80;;
70532;SDS011;58088;51.186;17.130;2022-12-05T08:51:40;46.20;;;16.80;;
70532;SDS011;58088;51.186;17.130;2022-12-05T08:54:07;41.60;;;14.70;;
70532;SDS011;58088;51.186;17.130;2022-12-05T08:56:33;40.80;;;14.50;;
70532;SDS011;58088;51.186;17.130;2022-12-05T08:59:00;38.50;;;15.10;;
70532;SDS011;58088;51.186;17.130;2022-12-05T09:01:27;44.30;;;17.70;;
70532;SDS011;58088;51.186;17.130;2022-12-05T09:03:59;44.60;;;16.70;;
70532;SDS011;58088;51.186;17.130;2022-12-05T09:06:27;46.00;;;17.60;;
70532;SDS011;58088;51.186;17.130;2022-12-05T09:08:59;41.80;;;16.20;;
70532;SDS011;58088;51.186;17.130;2022-12-05T09:11:29;44.00;;;17.90;;
70532;SDS011;58088;51.186;17.130;2022-12-05T09:13:59;49.00;;;18.40;;
70532;SDS011;58088;51.186;17.130;2022-12-05T09:16:30;44.60;;;18.20;;
70532;SDS011;58088;51.186;17.130;2022-12-05T09:18:59;40.90;;;15.40;;
70532;SDS011;58088;51.186;17.130;2022-12-05T09:21:27;42.30;;;17.00;;
70532;SDS011;58088;51.186;17.130;2022-12-05T09:23:57;43.10;;;16.90;;
70532;SDS011;58088;51.186;17.130;2022-12-05T09:26:25;46.60;;;17.80;;
70532;SDS011;58088;51.186;17.130;2022-12-05T09:28:52;37.20;;;14.30;;
70532;SDS011;58088;51.186;17.130;2022-12-05T09:31:21;42.50;;;17.50;;
70532;SDS011;58088;51.186;17.130;2022-12-05T09:33:51;37.90;;;15.30;;
70532;SDS011;58088;51.186;17.130;2022-12-05T09:36:22;40.10;;;15.60;;
70532;SDS011;58088;51.186;17.130;2022-12-05T09:38:51;35.40;;;15.00;;
70532;SDS011;58088;51.186;17.130;2022-12-05T09:41:26;24.40;;;7.60;;
70532;SDS011;58088;51.186;17.130;2022-12-05T09:47:10;37.40;;;14.60;;
70532;SDS011;58088;51.186;17.130;2022-12-05T09:49:51;30.20;;;10.90;;
70532;SDS011;58088;51.186;17.130;2022-12-05T09:52:28;44.00;;;14.60;;
70532;SDS011;58088;51.186;17.130;2022-12-05T09:55:18;43.90;;;15.80;;
70532;SDS011;58088;51.186;17.130;2022-12-05T09:57:55;35.30;;;12.90;;
70532;SDS011;58088;51.186;17.130;2022-12-05T10:00:27;40.30;;;14.90;;
70532;SDS011;58088;51.186;17.130;2022-12-05T10:06:35;40.20;;;15.50;;
70532;SDS011;58088;51.186;17.130;2022-12-05T10:15:12;34.90;;;13.40;;
70532;SDS011;58088;51.186;17.130;2022-12-05T10:17:52;35.90;;;12.20;;
70532;SDS011;58088;51.186;17.130;2022-12-05T10:20:45;38.10;;;14.70;;
70532;SDS011;58088;51.186;17.130;2022-12-05T10:24:01;31.80;;;12.30;;
70532;SDS011;58088;51.186;17.130;2022-12-05T10:26:34;25.60;;;9.60;;
70532;SDS011;58088;51.186;17.130;2022-12-05T10:31:52;38.90;;;13.30;;
70532;SDS011;58088;51.186;17.130;2022-12-05T10:34:38;25.60;;;9.10;;
70532;SDS011;58088;51.186;17.130;2022-12-05T10:37:15;40.70;;;14.90;;
70532;SDS011;58088;51.186;17.130;2022-12-05T10:39:45;35.40;;;11.00;;
70532;SDS011;58088;51.186;17.130;2022-12-05T10:42:24;36.00;;;12.30;;
70532;SDS011;58088;51.186;17.130;2022-12-05T10:44:58;19.80;;;6.10;;
70532;SDS011;58088;51.186;17.130;2022-12-05T10:47:29;23.70;;;7.80;;
70532;SDS011;58088;51.186;17.130;2022-12-05T10:50:00;40.30;;;14.30;;
70532;SDS011;58088;51.186;17.130;2022-12-05T10:52:34;28.90;;;9.90;;
70532;SDS011;58088;51.186;17.130;2022-12-05T10:55:03;30.10;;;10.80;;
70532;SDS011;58088;51.186;17.130;2022-12-05T10:57:31;38.30;;;13.70;;
70532;SDS011;58088;51.186;17.130;2022-12-05T11:00:09;28.70;;;9.60;;
70532;SDS011;58088;51.186;17.130;2022-12-05T11:02:39;37.20;;;13.30;;
70532;SDS011;58088;51.186;17.130;2022-12-05T11:05:06;30.30;;;9.60;;
70532;SDS011;58088;51.186;17.130;2022-12-05T11:10:40;36.40;;;14.30;;
70532;SDS011;58088;51.186;17.130;2022-12-05T11:13:22;38.60;;;14.10;;
70532;SDS011;58088;51.186;17.130;2022-12-05T11:15:50;45.30;;;16.70;;
70532;SDS011;58088;51.186;17.130;2022-12-05T11:20:50;40.80;;;16.60;;
70532;SDS011;58088;51.186;17.130;2022-12-05T11:23:28;35.80;;;14.30;;
70532;SDS011;58088;51.186;17.130;2022-12-05T11:25:57;43.50;;;16.10;;
70532;SDS011;58088;51.186;17.130;2022-12-05T11:28:33;38.70;;;14.50;;
70532;SDS011;58088;51.186;17.130;2022-12-05T11:31:26;40.50;;;15.70;;
70532;SDS011;58088;51.186;17.130;2022-12-05T11:34:02;32.80;;;13.10;;
70532;SDS011;58088;51.186;17.130;2022-12-05T11:36:47;35.40;;;13.30;;
70532;SDS011;58088;51.186;17.130;2022-12-05T11:39:40;33.80;;;13.60;;
70532;SDS011;58088;51.186;17.130;2022-12-05T11:56:53;36.10;;;11.70;;
70532;SDS011;58088;51.186;17.130;2022-12-05T12:00:36;15.10;;;5.50;;
70532;SDS011;58088;51.186;17.130;2022-12-05T12:03:14;28.40;;;9.20;;
70532;SDS011;58088;51.186;17.130;2022-12-05T12:08:31;36.30;;;14.20;;
70532;SDS011;58088;51.186;17.130;2022-12-05T12:11:53;44.80;;;17.00;;
70532;SDS011;58088;51.186;17.130;2022-12-05T12:26:46;37.80;;;13.80;;
70532;SDS011;58088;51.186;17.130;2022-12-05T12:29:38;40.30;;;16.00;;
70532;SDS011;58088;51.186;17.130;2022-12-05T12:40:55;42.60;;;16.10;;
70532;SDS011;58088;51.186;17.130;2022-12-05T12:53:32;44.20;;;17.60;;
70532;SDS011;58088;51.186;17.130;2022-12-05T12:55:51;40.70;;;17.60;;
70532;SDS011;58088;51.186;17.130;2022-12-05T12:58:45;39.40;;;13.70;;
70532;SDS011;58088;51.186;17.130;2022-12-05T13:01:34;41.10;;;15.80;;
70532;SDS011;58088;51.186;17.130;2022-12-05T13:07:24;39.70;;;15.40;;
70532;SDS011;58088;51.186;17.130;2022-12-05T13:10:05;41.10;;;16.40;;
70532;SDS011;58088;51.186;17.130;2022-12-05T13:12:51;35.80;;;13.80;;
70532;SDS011;58088;51.186;17.130;2022-12-05T13:15:34;48.30;;;18.90;;
70532;SDS011;58088;51.186;17.130;2022-12-05T13:18:03;37.90;;;14.90;;
70532;SDS011;58088;51.186;17.130;2022-12-05T13:20:33;44.90;;;17.80;;
70532;SDS011;58088;51.186;17.130;2022-12-05T13:23:02;49.30;;;18.90;;
70532;SDS011;58088;51.186;17.130;2022-12-05T13:25:31;48.00;;;20.00;;
70532;SDS011;58088;51.186;17.130;2022-12-05T13:28:03;40.40;;;16.80;;
70532;SDS011;58088;51.186;17.130;2022-12-05T13:30:33;43.10;;;17.20;;
70532;SDS011;58088;51.186;17.130;2022-12-05T13:33:24;43.90;;;16.50;;
70532;SDS011;58088;51.186;17.130;2022-12-05T13:35:56;41.40;;;16.70;;
70532;SDS011;58088;51.186;17.130;2022-12-05T13:41:59;46.80;;;17.90;;
70532;SDS011;58088;51.186;17.130;2022-12-05T13:44:54;40.60;;;14.90;;
70532;SDS011;58088;51.186;17.130;2022-12-05T13:50:18;49.20;;;18.30;;
70532;SDS011;58088;51.186;17.130;2022-12-05T13:55:56;40.00;;;16.30;;
70532;SDS011;58088;51.186;17.130;2022-12-05T14:00:51;45.90;;;18.30;;
70532;SDS011;58088;51.186;17.130;2022-12-05T14:04:01;47.40;;;18.00;;
70532;SDS011;58088;51.186;17.130;2022-12-05T14:09:30;45.60;;;18.30;;
70532;SDS011;58088;51.186;17.130;2022-12-05T14:17:27;40.10;;;18.10;;
70532;SDS011;58088;51.186;17.130;2022-12-05T14:25:58;42.30;;;15.70;;
70532;SDS011;58088;51.186;17.130;2022-12-05T14:31:57;44.60;;;17.80;;
70532;SDS011;58088;51.186;17.130;2022-12-05T14:34:29;40.80;;;16.40;;
70532;SDS011;58088;51.186;17.130;2022-12-05T14:37:02;43.60;;;18.10;;
70532;SDS011;58088;51.186;17.130;2022-12-05T14:39:44;47.00;;;18.80;;
70532;SDS011;58088;51.186;17.130;2022-12-05T14:42:25;43.80;;;19.00;;
70532;SDS011;58088;51.186;17.130;2022-12-05T14:45:00;42.80;;;18.40;;
70532;SDS011;58088;51.186;17.130;2022-12-05T14:47:31;52.70;;;20.70;;
70532;SDS011;58088;51.186;17.130;2022-12-05T14:50:44;45.10;;;18.60;;
70532;SDS011;58088;51.186;17.130;2022-12-05T14:53:22;45.20;;;16.80;;
70532;SDS011;58088;51.186;17.130;2022-12-05T15:01:45;45.60;;;18.80;;
70532;SDS011;58088;51.186;17.130;2022-12-05T15:04:40;57.90;;;23.80;;
70532;SDS011;58088;51.186;17.130;2022-12-05T15:07:11;58.90;;;27.30;;
70532;SDS011;58088;51.186;17.130;2022-12-05T15:12:40;50.60;;;22.50;;
70532;SDS011;58088;51.186;17.130;2022-12-05T15:16:13;51.80;;;21.40;;
70532;SDS011;58088;51.186;17.130;2022-12-05T15:18:50;50.90;;;20.20;;
70532;SDS011;58088;51.186;17.130;2022-12-05T15:21:31;59.20;;;23.80;;
70532;SDS011;58088;51.186;17.130;2022-12-05T15:24:04;55.00;;;21.50;;
70532;SDS011;58088;51.186;17.130;2022-12-05T15:26:56;57.30;;;22.90;;
70532;SDS011;58088;51.186;17.130;2022-12-05T15:29:25;58.80;;;23.10;;
70532;SDS011;58088;51.186;17.130;2022-12-05T15:32:03;63.90;;;26.40;;
70532;SDS011;58088;51.186;17.130;2022-12-05T15:34:44;50.40;;;21.80;;
70532;SDS011;58088;51.186;17.130;2022-12-05T15:42:46;58.40;;;24.60;;
70532;SDS011;58088;51.186;17.130;2022-12-05T15:47:40;71.10;;;27.00;;
70532;SDS011;58088;51.186;17.130;2022-12-05T15:50:12;73.30;;;28.40;;
70532;SDS011;58088;51.186;17.130;2022-12-05T15:52:53;76.10;;;29.90;;
70532;SDS011;58088;51.186;17.130;2022-12-05T15:55:35;76.50;;;29.60;;
70532;SDS011;58088;51.186;17.130;2022-12-05T15:58:07;69.50;;;26.50;;
70532;SDS011;58088;51.186;17.130;2022-12-05T16:01:05;83.70;;;32.00;;
70532;SDS011;58088;51.186;17.130;2022-12-05T16:06:23;76.20;;;31.30;;
70532;SDS011;58088;51.186;17.130;2022-12-05T16:09:21;72.50;;;29.60;;
70532;SDS011;58088;51.186;17.130;2022-12-05T16:11:59;68.30;;;27.80;;
70532;SDS011;58088;51.186;17.130;2022-12-05T16:14:36;74.40;;;28.20;;
70532;SDS011;58088;51.186;17.130;2022-12-05T16:17:06;80.30;;;30.60;;
70532;SDS011;58088;51.186;17.130;2022-12-05T16:19:39;78.00;;;30.60;;
70532;SDS011;58088;51.186;17.130;2022-12-05T16:22:07;69.00;;;28.30;;
70532;SDS011;58088;51.186;17.130;2022-12-05T16:24:44;75.80;;;30.70;;
70532;SDS011;58088;51.186;17.130;2022-12-05T16:27:24;69.20;;;29.00;;
70532;SDS011;58088;51.186;17.130;2022-12-05T16:30:07;76.50;;;30.20;;
70532;SDS011;58088;51.186;17.130;2022-12-05T16:32:37;77.50;;;30.40;;
70532;SDS011;58088;51.186;17.130;2022-12-05T16:38:03;74.10;;;28.80;;
70532;SDS011;58088;51.186;17.130;2022-12-05T16:43:40;70.70;;;28.10;;
70532;SDS011;58088;51.186;17.130;2022-12-05T16:48:38;79.40;;;31.00;;
70532;SDS011;58088;51.186;17.130;2022-12-05T16:53:49;77.90;;;30.40;;
70532;SDS011;58088;51.186;17.130;2022-12-05T16:56:21;79.60;;;29.70;;
70532;SDS011;58088;51.186;17.130;2022-12-05T16:58:47;77.40;;;31.90;;
70532;SDS011;58088;51.186;17.130;2022-12-05T17:01:19;72.50;;;29.20;;
70532;SDS011;58088;51.186;17.130;2022-12-05T17:03:48;70.90;;;28.80;;
70532;SDS011;58088;51.186;17.130;2022-12-05T17:06:15;118.20;;;41.30;;
70532;SDS011;58088;51.186;17.130;2022-12-05T17:08:49;191.60;;;54.30;;
70532;SDS011;58088;51.186;17.130;2022-12-05T17:11:19;202.40;;;56.90;;
70532;SDS011;58088;51.186;17.130;2022-12-05T17:13:48;135.40;;;45.80;;
70532;SDS011;58088;51.186;17.130;2022-12-05T17:16:16;135.80;;;44.30;;
70532;SDS011;58088;51.186;17.130;2022-12-05T17:18:43;114.00;;;41.10;;
70532;SDS011;58088;51.186;17.130;2022-12-05T17:21:15;94.80;;;36.60;;
70532;SDS011;58088;51.186;17.130;2022-12-05T17:23:44;72.30;;;29.90;;
70532;SDS011;58088;51.186;17.130;2022-12-05T17:26:13;78.40;;;32.10;;
70532;SDS011;58088;51.186;17.130;2022-12-05T17:28:45;78.30;;;31.60;;
70532;SDS011;58088;51.186;17.130;2022-12-05T17:31:12;67.70;;;29.70;;
70532;SDS011;58088;51.186;17.130;2022-12-05T17:33:44;74.50;;;28.00;;
70532;SDS011;58088;51.186;17.130;2022-12-05T17:36:11;82.80;;;30.00;;
70532;SDS011;58088;51.186;17.130;2022-12-05T17:38:38;86.50;;;32.00;;
70532;SDS011;58088;51.186;17.130;2022-12-05T17:41:05;78.50;;;30.90;;
70532;SDS011;58088;51.186;17.130;2022-12-05T17:43:32;78.10;;;29.20;;